Hide A Way, Texas
Current Conditions -  °F | °C
As of 11:53 AM on Thursday 18 Dec 2014 (Local Time) from KTYR Reporting Station
Haze Haze  
Wind Chill: 47°   Ceiling: 400
Heat Index: 49°   Visibility: 4mi
Dew Point: 46°   Wind: 5mph
Humidity: 90%   Direction: 50°NE
Pressure: 30.14"   Gusts: NA
Location:  32.5326°N, 95.4249°W
Report Text: KTYR 181753Z 05004KT 4SM BR OVC004 09/08 A3014 RMK AO2 SLP204 T00940078 10094 20067 58006
Loading
Personal Weather Stations






























Interactive Weather Map New forecast layout! Learn more

10-Day Weather Forecast

Advertisements
Track Severe Weather on mobile